Time;durP1;ratioP1;P1;durP2;ratioP2;P2;SDS_P1;SDS_P2;PMS_P1;PMS_P2;Temp;Humidity;BMP_temperature;BMP_pressure;BME280_temperature;BME280_humidity;BME280_pressure;Samples;Min_cycle;Max_cycle;Signal;HPM_P1;HPM_P2
2022/12/07 00:01:53;;;;;;;14.63;10.77;;;6.20;99.90;;;;;;5029215;28;20194;-81
2022/12/07 00:04:19;;;;;;;13.63;9.07;;;6.30;99.90;;;;;;5016588;28;20182;-82
2022/12/07 00:06:47;;;;;;;11.60;8.93;;;6.30;99.90;;;;;;5015369;28;20229;-80
2022/12/07 00:09:16;;;;;;;14.03;9.50;;;6.30;99.90;;;;;;5016202;28;20245;-81
2022/12/07 00:11:42;;;;;;;13.30;9.13;;;6.30;99.90;;;;;;5017214;28;20174;-80
2022/12/07 00:14:12;;;;;;;14.27;9.80;;;6.30;99.90;;;;;;5013642;28;20309;-77
2022/12/07 00:16:37;;;;;;;14.93;10.87;;;6.30;99.90;;;;;;5032527;28;20282;-80
2022/12/07 00:19:04;;;;;;;14.40;10.70;;;6.30;99.90;;;;;;5017467;28;20257;-82
2022/12/07 00:21:33;;;;;;;15.13;10.07;;;6.40;99.90;;;;;;5007654;28;20178;-81
2022/12/07 00:24:03;;;;;;;14.73;10.53;;;6.40;99.90;;;;;;5027011;28;20323;-83
2022/12/07 00:26:33;;;;;;;14.10;10.60;;;6.40;99.90;;;;;;5017118;28;20246;-82
2022/12/07 00:29:05;;;;;;;15.77;11.47;;;6.50;99.90;;;;;;5028673;28;20182;-80
2022/12/07 00:31:34;;;;;;;18.07;12.10;;;6.40;99.90;;;;;;5028834;28;20189;-80
2022/12/07 00:34:01;;;;;;;16.97;10.93;;;6.40;99.90;;;;;;5012694;28;20194;-84
2022/12/07 00:36:30;;;;;;;13.60;10.47;;;6.50;99.90;;;;;;5016789;28;20192;-81
2022/12/07 00:39:00;;;;;;;13.07;9.80;;;6.50;99.90;;;;;;5024485;28;20170;-80
2022/12/07 00:41:27;;;;;;;14.03;10.77;;;6.50;99.90;;;;;;5015074;28;20182;-80
2022/12/07 00:43:53;;;;;;;14.13;11.03;;;6.50;99.90;;;;;;5025324;28;20204;-77
2022/12/07 00:46:20;;;;;;;15.70;11.53;;;6.70;99.90;;;;;;5030536;28;20184;-81
2022/12/07 00:48:46;;;;;;;14.77;11.90;;;6.50;99.90;;;;;;5012729;28;20196;-80
2022/12/07 00:51:14;;;;;;;14.30;10.97;;;6.60;99.90;;;;;;5032879;28;20178;-80
2022/12/07 00:53:40;;;;;;;14.13;10.73;;;6.60;99.90;;;;;;5032607;28;20252;-79
2022/12/07 00:56:13;;;;;;;14.43;11.17;;;6.60;99.90;;;;;;5013955;28;20177;-81
2022/12/07 00:58:39;;;;;;;14.93;11.50;;;6.60;99.90;;;;;;5026737;28;20467;-78
2022/12/07 01:01:10;;;;;;;16.03;12.53;;;6.60;99.90;;;;;;5016752;28;20197;-77
2022/12/07 01:03:39;;;;;;;18.33;13.43;;;6.70;99.90;;;;;;5009639;28;20182;-80
2022/12/07 01:06:07;;;;;;;15.63;11.90;;;6.70;99.90;;;;;;5017381;28;20409;-77
2022/12/07 01:08:33;;;;;;;15.63;12.10;;;6.70;99.90;;;;;;5028394;28;20178;-81
2022/12/07 01:11:04;;;;;;;16.33;11.77;;;6.70;99.90;;;;;;5012672;28;20212;-78
2022/12/07 01:13:33;;;;;;;16.17;11.97;;;6.70;99.90;;;;;;5010145;28;20205;-75
2022/12/07 01:16:04;;;;;;;19.20;12.73;;;6.70;99.90;;;;;;5013181;28;20269;-82
2022/12/07 01:18:31;;;;;;;14.87;11.07;;;6.70;99.90;;;;;;5023022;28;20179;-82
2022/12/07 01:21:01;;;;;;;14.37;11.00;;;6.70;99.90;;;;;;5003724;28;20178;-78
2022/12/07 01:23:27;;;;;;;13.30;11.17;;;6.70;99.90;;;;;;5012835;28;20190;-81
2022/12/07 01:25:58;;;;;;;14.70;10.67;;;6.70;99.90;;;;;;5009697;28;20190;-76
2022/12/07 01:28:26;;;;;;;13.93;10.63;;;6.80;99.90;;;;;;5015819;28;20267;-81
2022/12/07 01:31:00;;;;;;;15.37;11.37;;;6.80;99.90;;;;;;5026207;28;20218;-81
2022/12/07 01:33:34;;;;;;;16.23;12.63;;;6.80;99.90;;;;;;5028619;28;20194;-81
2022/12/07 01:36:08;;;;;;;15.60;11.67;;;6.80;99.90;;;;;;5017074;28;20182;-80
2022/12/07 01:38:34;;;;;;;14.73;11.27;;;6.80;99.90;;;;;;5013998;28;20185;-80
2022/12/07 01:41:01;;;;;;;14.53;10.73;;;6.90;99.90;;;;;;5030097;28;20243;-81
2022/12/07 01:43:29;;;;;;;14.70;10.63;;;6.90;99.90;;;;;;5020745;28;20182;-81
2022/12/07 01:45:55;;;;;;;15.67;11.73;;;6.90;99.90;;;;;;5007237;28;20254;-79
2022/12/07 01:48:27;;;;;;;14.63;11.53;;;6.90;99.90;;;;;;5012706;28;20213;-82
2022/12/07 01:50:56;;;;;;;16.93;12.03;;;6.90;99.90;;;;;;5014767;28;20278;-79
2022/12/07 01:53:25;;;;;;;16.70;12.07;;;6.80;99.90;;;;;;5032617;28;20469;-82
2022/12/07 01:55:53;;;;;;;17.83;12.03;;;6.90;99.90;;;;;;5016766;28;20177;-81
2022/12/07 01:58:22;;;;;;;16.13;11.73;;;6.90;99.90;;;;;;5040849;28;20240;-81
2022/12/07 02:00:50;;;;;;;14.30;11.63;;;6.90;99.90;;;;;;5034821;28;20167;-81
2022/12/07 02:03:37;;;;;;;14.83;11.93;;;6.90;99.90;;;;;;5025398;28;20210;-82
2022/12/07 02:06:04;;;;;;;16.90;12.37;;;6.90;99.90;;;;;;5016962;28;20194;-81
2022/12/07 02:08:30;;;;;;;15.60;12.03;;;6.90;99.90;;;;;;5020477;28;20185;-82
2022/12/07 02:11:00;;;;;;;16.67;12.77;;;6.90;99.90;;;;;;5020583;28;20344;-81
2022/12/07 02:13:30;;;;;;;17.07;13.40;;;6.90;99.90;;;;;;5021916;28;20245;-81
2022/12/07 02:16:29;;;;;;;16.20;12.47;;;6.90;99.90;;;;;;5032856;28;20213;-79
2022/12/07 02:19:24;;;;;;;18.20;13.27;;;6.90;99.90;;;;;;5040046;28;20170;-79
2022/12/07 02:22:14;;;;;;;15.23;11.67;;;6.90;99.90;;;;;;5028403;28;20201;-80
2022/12/07 02:24:51;;;;;;;16.57;12.47;;;6.90;99.90;;;;;;5020213;28;20200;-78
2022/12/07 02:27:36;;;;;;;19.67;13.40;;;6.90;99.90;;;;;;5006221;28;20284;-77
2022/12/07 02:30:16;;;;;;;15.93;12.33;;;6.90;99.90;;;;;;5017181;28;20182;-77
2022/12/07 02:32:56;;;;;;;17.23;12.10;;;6.90;99.90;;;;;;5026814;28;20194;-78
2022/12/07 02:35:38;;;;;;;16.73;11.93;;;6.90;99.90;;;;;;5004659;28;20174;-77
2022/12/07 02:38:15;;;;;;;16.37;11.60;;;6.90;99.90;;;;;;5016723;28;20178;-78
2022/12/07 02:40:49;;;;;;;14.87;10.87;;;6.90;99.90;;;;;;5022911;28;20184;-79
2022/12/07 02:43:30;;;;;;;15.30;11.53;;;7.00;99.90;;;;;;5018828;28;20182;-76
2022/12/07 02:46:07;;;;;;;13.70;10.53;;;6.90;99.90;;;;;;5015769;28;20186;-79
2022/12/07 02:48:33;;;;;;;16.20;12.73;;;6.90;99.90;;;;;;5014839;28;20196;-78
2022/12/07 02:50:59;;;;;;;18.17;12.47;;;6.90;99.90;;;;;;5028042;28;20182;-79
2022/12/07 02:53:43;;;;;;;15.27;11.43;;;6.90;99.90;;;;;;5027287;28;20204;-80
2022/12/07 02:56:34;;;;;;;16.03;11.73;;;6.90;99.90;;;;;;5017999;28;20186;-76
2022/12/07 02:59:20;;;;;;;17.00;12.60;;;7.00;99.90;;;;;;5018179;28;20215;-78
2022/12/07 03:02:21;;;;;;;18.07;12.50;;;7.00;99.90;;;;;;5012813;28;20217;-76
2022/12/07 03:05:08;;;;;;;14.97;11.53;;;7.00;99.90;;;;;;4938998;29;20203;-77
2022/12/07 03:07:57;;;;;;;14.53;11.30;;;7.00;99.90;;;;;;5012866;28;20194;-78
2022/12/07 03:10:25;;;;;;;14.13;10.83;;;6.90;99.90;;;;;;5008790;28;20182;-79
2022/12/07 03:13:17;;;;;;;12.90;10.53;;;6.90;99.90;;;;;;5016816;28;20212;-79
2022/12/07 03:15:56;;;;;;;15.93;11.60;;;6.90;99.90;;;;;;5015819;28;20189;-76
2022/12/07 03:18:27;;;;;;;13.33;11.07;;;6.90;99.90;;;;;;5018946;28;20268;-78
2022/12/07 03:20:59;;;;;;;16.80;12.70;;;6.90;99.90;;;;;;5014267;28;20273;-77
2022/12/07 03:23:26;;;;;;;15.87;12.13;;;6.90;99.90;;;;;;5017947;28;20240;-79
2022/12/07 03:25:58;;;;;;;15.80;12.23;;;6.90;99.90;;;;;;5029832;28;20178;-78
2022/12/07 03:28:26;;;;;;;14.03;11.10;;;6.90;99.90;;;;;;5027545;28;20276;-79
2022/12/07 03:31:18;;;;;;;16.30;11.97;;;6.90;99.90;;;;;;5026567;28;20201;-78
2022/12/07 03:34:17;;;;;;;14.30;10.73;;;6.90;99.90;;;;;;5018967;28;20239;-78
2022/12/07 03:36:54;;;;;;;14.43;10.97;;;6.90;99.90;;;;;;4967561;28;20194;-78
2022/12/07 03:39:23;;;;;;;13.13;10.80;;;6.90;99.90;;;;;;5038670;28;20189;-76
2022/12/07 03:41:49;;;;;;;15.33;10.87;;;6.90;99.90;;;;;;5013093;28;20316;-78
2022/12/07 03:44:16;;;;;;;16.37;12.50;;;6.90;99.90;;;;;;5014388;28;20240;-75
2022/12/07 03:46:50;;;;;;;14.47;11.73;;;6.90;99.90;;;;;;5016275;28;20190;-77
2022/12/07 03:49:19;;;;;;;16.17;11.97;;;6.90;99.90;;;;;;5014031;28;20203;-78
2022/12/07 03:52:03;;;;;;;15.03;11.97;;;6.80;99.90;;;;;;5012468;28;20335;-79
2022/12/07 03:54:35;;;;;;;13.57;11.23;;;6.80;99.90;;;;;;5031696;28;20197;-79
2022/12/07 03:57:04;;;;;;;14.33;11.47;;;6.80;99.90;;;;;;5026760;28;20192;-78
2022/12/07 03:59:30;;;;;;;17.07;12.00;;;6.80;99.90;;;;;;5014830;28;20169;-77
2022/12/07 04:02:03;;;;;;;13.97;11.77;;;6.80;99.90;;;;;;5028717;28;20178;-77
2022/12/07 04:04:32;;;;;;;14.57;11.10;;;6.80;99.90;;;;;;5015120;28;20272;-77
2022/12/07 04:07:00;;;;;;;16.80;12.10;;;6.80;99.90;;;;;;5013678;28;20186;-78
2022/12/07 04:09:25;;;;;;;15.50;11.50;;;6.80;99.90;;;;;;5027504;28;20239;-78
2022/12/07 04:11:51;;;;;;;12.63;11.07;;;6.80;99.90;;;;;;5005570;28;20182;-77
2022/12/07 04:14:20;;;;;;;13.90;11.23;;;6.80;99.90;;;;;;5012978;28;20221;-78
2022/12/07 04:16:50;;;;;;;13.37;10.47;;;6.80;99.90;;;;;;5021407;28;20178;-78
2022/12/07 04:19:18;;;;;;;14.77;11.07;;;6.80;99.90;;;;;;5026017;28;20174;-77
2022/12/07 04:21:43;;;;;;;16.80;11.67;;;6.80;99.90;;;;;;5014550;28;20285;-77
2022/12/07 04:24:09;;;;;;;15.63;12.40;;;6.80;99.90;;;;;;5027106;28;20413;-77
2022/12/07 04:26:35;;;;;;;16.87;13.23;;;6.70;99.90;;;;;;5010856;28;20178;-78
2022/12/07 04:29:03;;;;;;;17.03;12.83;;;6.80;99.90;;;;;;5017183;28;20224;-77
2022/12/07 04:31:28;;;;;;;17.43;13.00;;;6.70;99.90;;;;;;5016982;28;20197;-77
2022/12/07 04:33:54;;;;;;;15.13;12.07;;;6.90;99.90;;;;;;5014951;28;20264;-78
2022/12/07 04:36:20;;;;;;;15.97;11.23;;;6.70;99.90;;;;;;5015504;28;20181;-77
2022/12/07 04:38:46;;;;;;;15.77;12.03;;;6.70;99.90;;;;;;5025512;28;20189;-76
2022/12/07 04:41:12;;;;;;;16.43;12.57;;;6.80;99.90;;;;;;5003612;28;20182;-76
2022/12/07 04:43:38;;;;;;;17.13;12.83;;;6.70;99.90;;;;;;5015182;28;20358;-77
2022/12/07 04:46:06;;;;;;;14.87;12.17;;;6.70;99.90;;;;;;5033520;28;20193;-77
2022/12/07 04:48:35;;;;;;;17.63;13.03;;;6.70;99.90;;;;;;5016925;28;20205;-77
2022/12/07 04:51:02;;;;;;;21.57;13.40;;;6.70;99.90;;;;;;5025769;28;20281;-77
2022/12/07 04:53:32;;;;;;;16.67;13.27;;;6.70;99.90;;;;;;5016952;28;20275;-77
2022/12/07 04:55:58;;;;;;;20.00;12.17;;;6.70;99.90;;;;;;5029160;28;20186;-78
2022/12/07 04:58:28;;;;;;;16.83;12.00;;;6.80;99.90;;;;;;5031545;28;20177;-78
2022/12/07 05:00:57;;;;;;;14.80;11.40;;;6.70;99.90;;;;;;5014030;28;20237;-77
2022/12/07 05:03:23;;;;;;;14.37;11.53;;;6.70;99.90;;;;;;5015743;28;20190;-78
2022/12/07 05:05:48;;;;;;;16.47;11.20;;;6.70;99.90;;;;;;5013733;28;20189;-76
2022/12/07 05:08:16;;;;;;;15.07;10.70;;;6.70;99.90;;;;;;5012679;28;20185;-77
2022/12/07 05:10:42;;;;;;;15.63;11.00;;;6.70;99.90;;;;;;5013492;28;20206;-77
2022/12/07 05:13:07;;;;;;;14.80;11.33;;;6.70;99.90;;;;;;5024559;28;20252;-77
2022/12/07 05:15:33;;;;;;;15.23;11.13;;;6.70;99.90;;;;;;5015774;28;20305;-77
2022/12/07 05:18:06;;;;;;;15.60;11.27;;;6.80;99.90;;;;;;5027015;28;20470;-78
2022/12/07 05:20:32;;;;;;;12.40;10.23;;;6.60;99.90;;;;;;5028871;28;20182;-78
2022/12/07 05:22:58;;;;;;;12.73;10.80;;;6.70;99.90;;;;;;5028723;28;20197;-78
2022/12/07 05:25:24;;;;;;;12.63;10.00;;;6.60;99.90;;;;;;5014288;28;20249;-78
2022/12/07 05:27:49;;;;;;;12.77;9.83;;;6.60;99.90;;;;;;5027931;28;20269;-77
2022/12/07 05:30:18;;;;;;;13.27;10.00;;;6.60;99.90;;;;;;4999087;28;20209;-78
2022/12/07 05:32:44;;;;;;;13.97;10.03;;;6.60;99.90;;;;;;5031857;28;20194;-77
2022/12/07 05:35:09;;;;;;;13.13;10.00;;;6.50;99.90;;;;;;5019323;28;20233;-78
2022/12/07 05:37:35;;;;;;;15.17;9.87;;;6.60;99.90;;;;;;5030785;28;20197;-78
2022/12/07 05:40:01;;;;;;;13.77;10.37;;;6.60;99.90;;;;;;5033949;28;20178;-78
2022/12/07 05:42:29;;;;;;;15.17;11.13;;;6.60;99.90;;;;;;5016206;28;20170;-77
2022/12/07 05:44:57;;;;;;;15.90;11.20;;;6.70;99.90;;;;;;5017716;28;20187;-78
2022/12/07 05:47:23;;;;;;;14.07;10.80;;;6.70;99.90;;;;;;5020158;28;20191;-78
2022/12/07 05:49:48;;;;;;;15.97;10.77;;;6.60;99.90;;;;;;5029528;28;20197;-77
2022/12/07 05:52:57;;;;;;;16.17;12.13;;;6.70;99.90;;;;;;5078921;28;20566;-74
2022/12/07 05:55:23;;;;;;;17.90;12.93;;;6.70;99.90;;;;;;5045861;28;20201;-74
2022/12/07 06:00:33;;;;;;;14.73;11.20;;;6.70;99.90;;;;;;5025115;28;20225;-77
2022/12/07 06:02:59;;;;;;;17.47;10.83;;;6.70;99.90;;;;;;5060511;28;20185;-77
2022/12/07 06:05:26;;;;;;;15.33;11.37;;;6.70;99.90;;;;;;5028188;28;20189;-78
2022/12/07 06:07:52;;;;;;;16.77;11.40;;;6.70;99.90;;;;;;5036279;28;20206;-77
2022/12/07 06:10:18;;;;;;;15.07;10.87;;;6.70;99.90;;;;;;5040987;28;20252;-77
2022/12/07 06:12:46;;;;;;;15.30;11.13;;;6.70;99.90;;;;;;5030355;28;20334;-78
2022/12/07 06:15:12;;;;;;;14.53;10.13;;;6.60;99.90;;;;;;5028738;28;20178;-78
2022/12/07 06:17:38;;;;;;;16.73;11.33;;;6.60;99.90;;;;;;5026346;28;20178;-78
2022/12/07 06:20:07;;;;;;;14.80;10.77;;;6.70;99.90;;;;;;5041363;28;20321;-79
2022/12/07 06:22:38;;;;;;;15.10;11.00;;;6.70;99.90;;;;;;5049040;28;20183;-79
2022/12/07 06:25:03;;;;;;;16.30;11.90;;;6.70;99.90;;;;;;5027294;28;20182;-77
2022/12/07 06:27:29;;;;;;;15.70;10.57;;;6.70;99.90;;;;;;5028763;28;20182;-78
2022/12/07 06:29:55;;;;;;;14.67;10.57;;;6.70;99.90;;;;;;5030536;28;20273;-78
2022/12/07 06:32:20;;;;;;;19.07;11.20;;;6.70;99.90;;;;;;5051470;28;20248;-80
2022/12/07 06:34:48;;;;;;;13.37;10.07;;;6.70;99.90;;;;;;5022431;28;20217;-78
2022/12/07 06:37:14;;;;;;;13.07;9.37;;;6.70;99.90;;;;;;5028333;28;20305;-80
2022/12/07 06:39:42;;;;;;;13.80;10.40;;;6.70;99.90;;;;;;5028054;28;20213;-77
2022/12/07 06:42:12;;;;;;;13.27;9.87;;;6.70;99.90;;;;;;5027593;28;20217;-75
2022/12/07 06:44:38;;;;;;;12.93;9.53;;;6.70;99.90;;;;;;5038778;28;20253;-76
2022/12/07 06:47:04;;;;;;;13.03;9.53;;;6.60;99.90;;;;;;5027357;28;20216;-79
2022/12/07 06:49:32;;;;;;;12.27;9.00;;;6.60;99.90;;;;;;5030626;28;20181;-78
2022/12/07 06:51:57;;;;;;;15.93;10.67;;;6.50;99.90;;;;;;5029545;28;20367;-78
2022/12/07 06:54:23;;;;;;;12.97;9.20;;;6.50;99.90;;;;;;5027583;28;20253;-78
2022/12/07 06:56:49;;;;;;;12.23;9.23;;;6.40;99.90;;;;;;5026851;28;20178;-81
2022/12/07 06:59:14;;;;;;;13.87;9.83;;;6.40;99.90;;;;;;5031532;28;20177;-79
2022/12/07 07:01:40;;;;;;;12.37;9.00;;;6.40;99.90;;;;;;5029238;28;20179;-79
2022/12/07 07:04:06;;;;;;;13.97;8.93;;;6.40;99.90;;;;;;5013426;28;20237;-77
2022/12/07 07:06:31;;;;;;;12.80;8.93;;;6.30;99.90;;;;;;5018898;28;20289;-77
2022/12/07 07:08:57;;;;;;;14.77;8.87;;;6.30;99.90;;;;;;5011576;28;20266;-78
2022/12/07 07:11:23;;;;;;;12.27;9.10;;;6.30;99.90;;;;;;5015510;28;20268;-77
2022/12/07 07:13:48;;;;;;;12.50;9.07;;;6.30;99.90;;;;;;5008112;28;20176;-77
2022/12/07 07:16:19;;;;;;;12.30;9.10;;;6.40;99.90;;;;;;5013208;28;20183;-76
2022/12/07 07:18:48;;;;;;;11.43;8.83;;;6.40;99.90;;;;;;5004783;28;20258;-75
2022/12/07 07:21:14;;;;;;;14.43;8.97;;;6.40;99.90;;;;;;5027924;28;20191;-76
2022/12/07 07:23:42;;;;;;;11.63;8.73;;;6.40;99.90;;;;;;5015758;28;20182;-74
2022/12/07 07:26:09;;;;;;;10.30;7.90;;;6.40;99.90;;;;;;5018357;28;20179;-76
2022/12/07 07:28:35;;;;;;;11.27;8.07;;;6.40;99.90;;;;;;5013727;28;20182;-76
2022/12/07 07:31:01;;;;;;;12.33;7.93;;;6.40;99.90;;;;;;5017255;28;20214;-74
2022/12/07 07:33:26;;;;;;;11.37;7.83;;;6.40;99.90;;;;;;5015717;28;20190;-75
2022/12/07 07:38:59;;;;;;;11.13;8.50;;;6.40;99.90;;;;;;5915383;23;20226;-77
2022/12/07 07:41:25;;;;;;;9.73;7.90;;;6.40;99.90;;;;;;4974974;28;20191;-76
2022/12/07 07:43:53;;;;;;;9.73;7.17;;;6.40;99.90;;;;;;4950485;28;20267;-77
2022/12/07 07:46:24;;;;;;;9.87;7.77;;;6.40;99.90;;;;;;4957141;28;20196;-77
2022/12/07 07:48:50;;;;;;;11.67;8.33;;;6.50;99.90;;;;;;4956891;28;20284;-79
2022/12/07 07:51:27;;;;;;;10.20;7.73;;;6.50;99.90;;;;;;4953084;28;20268;-78
2022/12/07 07:53:53;;;;;;;12.57;7.97;;;6.50;99.90;;;;;;4956125;28;20196;-78
2022/12/07 07:56:20;;;;;;;11.00;8.17;;;6.80;99.90;;;;;;4948700;28;20202;-77
2022/12/07 07:58:46;;;;;;;12.90;8.70;;;6.60;99.90;;;;;;4954214;28;20192;-78
2022/12/07 08:01:14;;;;;;;13.17;9.40;;;6.60;99.90;;;;;;4963646;28;20223;-78
2022/12/07 08:03:40;;;;;;;14.13;9.90;;;6.80;99.90;;;;;;4964524;28;20283;-77
2022/12/07 08:06:06;;;;;;;13.27;9.13;;;6.70;99.90;;;;;;4956783;28;20191;-77
2022/12/07 08:08:35;;;;;;;14.23;9.83;;;6.70;99.90;;;;;;4960614;28;20189;-77
2022/12/07 08:11:01;;;;;;;12.53;8.77;;;6.70;99.90;;;;;;4962200;28;20244;-77
2022/12/07 08:13:30;;;;;;;14.97;10.50;;;6.70;99.90;;;;;;4984110;28;20218;-76
2022/12/07 08:15:55;;;;;;;13.60;10.13;;;6.70;99.90;;;;;;4975480;28;20185;-76
2022/12/07 08:18:21;;;;;;;14.23;10.83;;;6.80;99.90;;;;;;5185812;23;20228;-78
2022/12/07 08:20:50;;;;;;;14.10;10.30;;;6.70;99.90;;;;;;4959653;28;20279;-81
2022/12/07 08:23:29;;;;;;;14.67;10.17;;;6.70;99.90;;;;;;4957969;28;20196;-81
2022/12/07 08:25:55;;;;;;;14.40;10.33;;;6.60;99.90;;;;;;4956462;29;20177;-81
2022/12/07 08:28:20;;;;;;;16.17;9.97;;;6.60;99.90;;;;;;4953051;28;20177;-80
2022/12/07 08:30:46;;;;;;;15.50;9.40;;;6.60;99.90;;;;;;4950810;28;20212;-80
2022/12/07 08:33:14;;;;;;;14.67;10.20;;;6.60;99.90;;;;;;4946564;28;20184;-79
2022/12/07 08:35:46;;;;;;;13.07;9.67;;;6.60;99.90;;;;;;4955209;28;20204;-81
2022/12/07 08:38:11;;;;;;;14.30;10.20;;;6.60;99.90;;;;;;4963853;28;20204;-79
2022/12/07 08:40:40;;;;;;;13.37;9.40;;;6.60;99.90;;;;;;4967481;28;20181;-80
2022/12/07 08:43:05;;;;;;;12.17;8.70;;;6.70;99.90;;;;;;4948215;29;20207;-79
2022/12/07 08:45:35;;;;;;;13.23;8.50;;;6.70;99.90;;;;;;4956337;28;20290;-80
2022/12/07 08:48:13;;;;;;;16.40;9.13;;;6.80;99.90;;;;;;4954970;28;20185;-79
2022/12/07 08:50:45;;;;;;;14.60;9.73;;;7.00;99.90;;;;;;4949053;28;20177;-81
2022/12/07 08:53:14;;;;;;;13.50;10.07;;;6.90;99.90;;;;;;4956078;29;20196;-81
2022/12/07 08:56:05;;;;;;;13.53;10.23;;;6.90;99.90;;;;;;4963073;28;20177;-81
2022/12/07 08:58:35;;;;;;;15.10;9.10;;;6.90;99.90;;;;;;4950352;29;20201;-81
2022/12/07 09:01:31;;;;;;;13.60;10.30;;;7.00;99.90;;;;;;4959458;28;20185;-79
2022/12/07 09:03:59;;;;;;;13.63;10.07;;;6.90;99.90;;;;;;4962380;28;20176;-79
2022/12/07 09:06:28;;;;;;;13.03;9.03;;;6.90;99.90;;;;;;4958020;28;20233;-78
2022/12/07 09:08:57;;;;;;;12.77;8.67;;;7.00;99.90;;;;;;4955394;29;20250;-79
2022/12/07 09:11:23;;;;;;;11.33;7.63;;;6.90;99.90;;;;;;4963189;28;20197;-79
2022/12/07 09:13:49;;;;;;;13.37;10.13;;;6.90;99.90;;;;;;4943042;29;20196;-80
2022/12/07 09:16:15;;;;;;;11.73;8.30;;;6.90;99.90;;;;;;4954769;28;20276;-79
2022/12/07 09:19:03;;;;;;;15.00;9.87;;;6.90;99.90;;;;;;4951645;28;20200;-79
2022/12/07 09:21:29;;;;;;;14.63;9.90;;;6.90;99.90;;;;;;4951460;28;20185;-77
2022/12/07 09:23:56;;;;;;;12.37;8.87;;;6.90;99.90;;;;;;4956100;28;20177;-80
2022/12/07 09:26:25;;;;;;;13.63;9.50;;;7.00;99.90;;;;;;4963668;28;20188;-80
2022/12/07 09:28:51;;;;;;;13.10;9.27;;;7.00;99.90;;;;;;4958470;28;20188;-77
2022/12/07 09:31:23;;;;;;;12.90;9.03;;;7.10;99.90;;;;;;4951988;29;20208;-79
2022/12/07 09:33:57;;;;;;;11.07;8.13;;;7.50;99.90;;;;;;4956670;28;20197;-78
2022/12/07 09:36:28;;;;;;;12.97;7.80;;;7.20;99.90;;;;;;4954514;28;20188;-79
2022/12/07 09:38:55;;;;;;;11.47;8.27;;;7.20;99.90;;;;;;4960899;28;20196;-79
2022/12/07 09:41:22;;;;;;;10.10;7.87;;;7.30;99.90;;;;;;4942642;28;20235;-77
2022/12/07 09:44:37;;;;;;;14.37;8.40;;;7.30;99.90;;;;;;4947090;29;20185;-76
2022/12/07 09:47:02;;;;;;;11.03;8.13;;;7.30;99.90;;;;;;4944651;28;20279;-77
2022/12/07 09:50:01;;;;;;;11.10;8.00;;;7.30;99.90;;;;;;4959468;28;20307;-77
2022/12/07 09:52:33;;;;;;;13.17;8.67;;;7.30;99.90;;;;;;4962240;28;20204;-77
2022/12/07 09:54:59;;;;;;;12.80;7.87;;;7.50;99.90;;;;;;4951733;28;20197;-79
2022/12/07 09:57:31;;;;;;;11.63;7.80;;;7.40;99.90;;;;;;4950197;29;20188;-77
2022/12/07 10:00:02;;;;;;;12.87;8.20;;;7.40;99.90;;;;;;4957459;29;20180;-78
2022/12/07 10:03:10;;;;;;;11.13;7.33;;;7.50;99.90;;;;;;4945315;28;20196;-77
2022/12/07 10:05:40;;;;;;;11.30;7.60;;;7.50;99.90;;;;;;4946147;29;20201;-78
2022/12/07 10:08:13;;;;;;;10.87;7.23;;;7.60;99.90;;;;;;4953801;28;20232;-79
2022/12/07 10:10:39;;;;;;;11.03;7.83;;;8.00;99.90;;;;;;4969096;28;20184;-79
2022/12/07 10:13:30;;;;;;;10.00;7.17;;;7.60;99.90;;;;;;4970938;28;20267;-77
2022/12/07 10:15:57;;;;;;;9.60;6.90;;;7.60;99.90;;;;;;4953586;28;20304;-76
2022/12/07 10:18:47;;;;;;;12.40;6.67;;;7.60;99.90;;;;;;4950204;28;20192;-77
2022/12/07 10:21:28;;;;;;;8.50;6.40;;;7.60;99.90;;;;;;4945540;29;20192;-78
2022/12/07 10:24:11;;;;;;;10.27;6.47;;;7.70;99.90;;;;;;4961264;28;20211;-77
2022/12/07 10:26:56;;;;;;;9.07;5.83;;;7.70;99.90;;;;;;4952097;29;20276;-74
2022/12/07 10:29:41;;;;;;;8.07;5.80;;;7.70;99.90;;;;;;4971093;28;20181;-78
2022/12/07 10:32:32;;;;;;;11.63;6.47;;;8.00;99.90;;;;;;4957334;29;20288;-76
2022/12/07 10:35:20;;;;;;;10.93;7.03;;;7.80;99.90;;;;;;4962483;29;20195;-78
2022/12/07 10:41:32;;;;;;;11.93;7.67;;;8.20;99.90;;;;;;4953529;29;20223;-77
2022/12/07 10:43:58;;;;;;;9.53;6.20;;;8.00;99.90;;;;;;4956228;28;20177;-78
2022/12/07 10:46:35;;;;;;;9.53;6.70;;;8.00;99.90;;;;;;4952314;28;20243;-79
2022/12/07 10:49:12;;;;;;;12.47;7.57;;;8.10;99.90;;;;;;4969184;28;20180;-79
2022/12/07 10:52:05;;;;;;;11.60;6.83;;;8.10;99.90;;;;;;4961118;28;20199;-78
2022/12/07 10:54:59;;;;;;;7.97;5.53;;;8.10;99.90;;;;;;4953629;28;20211;-78
2022/12/07 11:01:42;;;;;;;9.77;6.33;;;8.00;99.90;;;;;;4952190;28;20187;-78
2022/12/07 11:04:50;;;;;;;8.73;5.23;;;8.10;99.90;;;;;;4955357;29;20184;-80
2022/12/07 11:08:02;;;;;;;6.70;4.80;;;8.20;99.90;;;;;;4955500;29;20177;-80
2022/12/07 11:11:13;;;;;;;7.63;4.53;;;8.20;99.90;;;;;;4971909;28;20236;-79
2022/12/07 11:14:16;;;;;;;7.57;5.20;;;8.20;99.90;;;;;;4952807;28;20197;-78
2022/12/07 11:17:35;;;;;;;;;;;;;;;;;;;;;
2022/12/07 11:20:34;;;;;;;7.83;5.40;;;8.20;99.90;;;;;;4959763;28;20185;-77
2022/12/07 11:24:04;;;;;;;7.33;4.97;;;8.10;99.90;;;;;;4945165;28;20248;-78
2022/12/07 11:26:50;;;;;;;5.73;4.63;;;8.10;99.90;;;;;;4917799;29;20206;-78
2022/12/07 11:29:34;;;;;;;10.43;5.23;;;8.10;99.90;;;;;;4945023;29;20267;-77
2022/12/07 11:32:53;;;;;;;9.33;5.37;;;8.10;99.90;;;;;;4956295;29;20208;-78
2022/12/07 11:35:51;;;;;;;7.73;5.03;;;8.20;99.90;;;;;;4956283;28;20177;-79
2022/12/07 11:38:30;;;;;;;7.30;4.50;;;8.20;99.90;;;;;;4951741;29;20260;-79
2022/12/07 11:41:12;;;;;;;6.23;4.40;;;8.20;99.90;;;;;;4947294;29;20232;-80
2022/12/07 11:43:50;;;;;;;5.33;3.73;;;8.30;99.90;;;;;;4955646;29;20282;-79
2022/12/07 11:46:24;;;;;;;6.80;4.10;;;8.40;99.90;;;;;;4956221;29;20195;-77
2022/12/07 11:49:23;;;;;;;6.57;4.13;;;8.50;99.90;;;;;;4976357;28;20299;-79
2022/12/07 11:51:52;;;;;;;7.00;3.93;;;8.70;99.90;;;;;;4959393;29;20215;-78
2022/12/07 11:54:31;;;;;;;7.23;4.40;;;8.90;99.90;;;;;;4965115;29;20185;-78
2022/12/07 11:57:24;;;;;;;9.00;4.60;;;9.00;99.90;;;;;;4988261;28;20172;-79
2022/12/07 12:00:04;;;;;;;7.73;4.67;;;9.10;99.90;;;;;;4984493;28;20196;-77
2022/12/07 12:03:04;;;;;;;8.63;4.80;;;9.20;99.90;;;;;;4967231;29;20200;-77
2022/12/07 12:05:40;;;;;;;8.37;4.27;;;9.10;99.90;;;;;;4968192;28;20188;-79
2022/12/07 12:08:15;;;;;;;5.70;3.77;;;9.20;99.90;;;;;;4966453;28;20235;-80
2022/12/07 12:10:56;;;;;;;6.47;3.63;;;9.10;99.90;;;;;;4963267;29;20177;-79
2022/12/07 12:13:52;;;;;;;5.97;3.50;;;9.30;99.90;;;;;;4961071;28;20192;-78
2022/12/07 12:16:30;;;;;;;8.43;4.30;;;9.10;99.90;;;;;;4949744;29;20204;-78
2022/12/07 12:19:14;;;;;;;6.40;3.63;;;9.10;99.90;;;;;;4955523;29;20266;-79
2022/12/07 12:21:41;;;;;;;6.03;4.07;;;9.10;99.90;;;;;;4950349;29;20266;-77
2022/12/07 12:24:41;;;;;;;4.87;3.20;;;9.00;99.90;;;;;;4953252;29;20275;-77
2022/12/07 12:27:15;;;;;;;7.20;4.33;;;9.00;99.90;;;;;;4945017;29;20240;-79
2022/12/07 12:29:50;;;;;;;5.87;3.67;;;9.00;99.90;;;;;;4953911;29;20176;-79
2022/12/07 12:32:33;;;;;;;6.07;4.07;;;9.00;99.90;;;;;;4953101;28;20196;-77
2022/12/07 12:35:26;;;;;;;6.80;4.23;;;8.90;99.90;;;;;;4952543;29;20178;-79
2022/12/07 12:37:55;;;;;;;5.23;4.00;;;8.90;99.90;;;;;;4957399;28;20212;-78
2022/12/07 12:40:23;;;;;;;6.77;4.40;;;8.80;99.90;;;;;;4969233;28;20177;-76
2022/12/07 12:42:58;;;;;;;7.20;4.60;;;8.80;99.90;;;;;;4953809;29;20184;-77
2022/12/07 12:45:32;;;;;;;6.00;4.40;;;8.70;99.90;;;;;;4956362;28;20416;-76
2022/12/07 12:48:27;;;;;;;6.53;4.30;;;8.70;99.90;;;;;;4955922;29;20172;-78
2022/12/07 12:51:39;;;;;;;5.80;3.77;;;8.70;99.90;;;;;;4950321;29;20219;-77
2022/12/07 12:54:17;;;;;;;7.13;3.77;;;8.70;99.90;;;;;;4939219;28;20213;-77
2022/12/07 12:56:58;;;;;;;6.10;3.77;;;8.70;99.90;;;;;;4956080;28;20208;-79
2022/12/07 12:59:30;;;;;;;6.03;3.80;;;8.70;99.90;;;;;;4955140;29;20223;-78
2022/12/07 13:02:19;;;;;;;4.67;3.43;;;8.70;99.90;;;;;;4956330;28;20280;-77
2022/12/07 13:05:19;;;;;;;7.40;3.80;;;8.70;99.90;;;;;;4955882;28;20184;-78
2022/12/07 13:08:16;;;;;;;9.97;5.43;;;8.70;99.90;;;;;;4949845;28;20249;-78
2022/12/07 13:10:45;;;;;;;9.67;4.77;;;8.70;99.90;;;;;;4952660;29;20197;-78
2022/12/07 13:13:10;;;;;;;8.30;4.47;;;8.60;99.90;;;;;;4955688;29;20176;-77
2022/12/07 13:15:49;;;;;;;8.13;4.80;;;8.60;99.90;;;;;;4969225;28;20183;-77
2022/12/07 13:18:27;;;;;;;12.07;5.93;;;8.50;99.90;;;;;;4955085;28;20192;-77
2022/12/07 13:21:10;;;;;;;8.90;5.87;;;8.50;99.90;;;;;;4956286;28;20212;-77
2022/12/07 13:23:49;;;;;;;8.10;4.63;;;8.40;99.90;;;;;;4952732;29;20211;-78
2022/12/07 13:26:20;;;;;;;8.00;4.97;;;8.30;99.90;;;;;;4971496;28;20168;-78
2022/12/07 13:28:51;;;;;;;7.63;4.63;;;8.30;99.90;;;;;;4955124;29;20216;-78
2022/12/07 13:31:55;;;;;;;6.80;5.03;;;8.30;99.90;;;;;;4941113;29;20251;-78
2022/12/07 13:34:34;;;;;;;9.60;5.03;;;8.30;99.90;;;;;;4951293;29;20187;-77